Time;durP1;ratioP1;P1;durP2;ratioP2;P2;SDS_P1;SDS_P2;PMS_P1;PMS_P2;Temp;Humidity;BMP_temperature;BMP_pressure;BME280_temperature;BME280_humidity;BME280_pressure;Samples;Min_cycle;Max_cycle;Signal;HPM_P1;HPM_P2
2022/01/11 00:00:38;;;;;;;222.80;25.75;;;0.30;99.90;;;;;;5111676;28;20051;-82
2022/01/11 00:03:05;;;;;;;192.90;25.42;;;0.30;99.90;;;;;;5113057;28;20047;-81
2022/01/11 00:05:41;;;;;;;196.05;26.17;;;0.30;99.90;;;;;;5113015;28;20055;-82
2022/01/11 00:08:09;;;;;;;150.03;24.23;;;0.30;99.90;;;;;;5112990;28;20051;-82
2022/01/11 00:10:47;;;;;;;196.82;25.42;;;0.30;99.90;;;;;;5095971;28;20286;-82
2022/01/11 00:13:14;;;;;;;225.57;26.10;;;0.30;99.90;;;;;;5104160;28;20063;-82
2022/01/11 00:15:40;;;;;;;198.45;28.27;;;0.30;99.90;;;;;;5091034;28;20052;-82
2022/01/11 00:18:06;;;;;;;310.15;34.25;;;0.70;99.90;;;;;;5092732;28;20059;-82
2022/01/11 00:20:32;;;;;;;170.77;23.70;;;0.50;99.90;;;;;;5075242;28;20374;-82
2022/01/11 00:25:28;;;;;;;185.50;29.13;;;0.20;99.90;;;;;;5091846;28;20382;-82
2022/01/11 00:27:55;;;;;;;260.15;28.20;;;0.30;99.90;;;;;;5075557;28;20056;-82
2022/01/11 00:30:22;;;;;;;304.75;29.85;;;0.30;99.90;;;;;;5110448;28;20391;-82
2022/01/11 00:32:53;;;;;;;345.15;34.33;;;1.10;99.90;;;;;;5098261;28;20492;-82
2022/01/11 00:35:27;;;;;;;215.77;26.13;;;0.90;99.90;;;;;;5112621;28;20169;-83
2022/01/11 00:37:53;;;;;;;216.27;27.00;;;0.30;99.90;;;;;;5124409;27;20087;-82
2022/01/11 00:40:18;;;;;;;209.30;27.20;;;0.40;99.90;;;;;;5132824;27;20085;-82
2022/01/11 00:42:44;;;;;;;209.57;24.77;;;0.40;99.90;;;;;;5132751;27;20307;-82
2022/01/11 00:45:11;;;;;;;235.35;26.52;;;0.30;99.90;;;;;;5132248;27;20051;-82
2022/01/11 00:47:37;;;;;;;202.93;24.08;;;0.30;99.90;;;;;;5115258;27;20046;-82
2022/01/11 00:50:03;;;;;;;;;;;1.00;99.90;;;;;;5116531;27;20043;-82
2022/01/11 00:52:29;;;;;;;246.98;25.75;;;0.30;99.90;;;;;;5132731;27;19919;-82
2022/01/11 00:54:55;;;;;;;166.88;21.00;;;0.20;99.90;;;;;;5132470;27;20122;-82
2022/01/11 00:57:22;;;;;;;339.67;34.35;;;0.20;99.90;;;;;;5132685;27;20511;-82
2022/01/11 00:59:47;;;;;;;131.95;21.15;;;0.20;99.90;;;;;;5128921;27;20047;-83
2022/01/11 01:02:13;;;;;;;319.48;31.38;;;0.20;99.90;;;;;;5132672;27;20050;-82
2022/01/11 01:04:39;;;;;;;283.70;27.15;;;0.10;99.90;;;;;;5132281;27;20419;-82
2022/01/11 01:07:05;;;;;;;286.52;27.60;;;0.10;99.90;;;;;;5115957;27;20043;-81
2022/01/11 01:09:40;;;;;;;233.93;25.55;;;0.10;99.90;;;;;;5114592;27;20126;-82
2022/01/11 01:12:07;;;;;;;305.20;28.83;;;0.10;99.90;;;;;;5116868;27;20142;-82
2022/01/11 01:14:33;;;;;;;334.98;32.13;;;0.10;99.90;;;;;;5113518;27;20039;-82
2022/01/11 01:16:58;;;;;;;250.27;26.38;;;0.90;99.90;;;;;;5115145;27;20517;-82
2022/01/11 01:19:27;;;;;;;300.27;29.38;;;0.10;99.90;;;;;;5129879;27;20047;-82
2022/01/11 01:21:54;;;;;;;185.77;23.73;;;0.10;99.90;;;;;;5131822;27;20039;-82
2022/01/11 01:24:20;;;;;;;252.55;26.40;;;0.10;99.90;;;;;;5132314;27;20732;-82
2022/01/11 01:26:46;;;;;;;226.52;26.55;;;0.80;99.90;;;;;;5114720;27;20055;-82
2022/01/11 01:29:12;;;;;;;214.80;25.48;;;0.10;99.90;;;;;;5114199;27;20091;-82
2022/01/11 01:31:38;;;;;;;259.83;27.08;;;0.00;99.90;;;;;;5131566;27;20116;-82
2022/01/11 01:34:04;;;;;;;226.80;25.70;;;0.10;99.90;;;;;;5132075;27;20039;-82
2022/01/11 01:36:30;;;;;;;244.80;28.42;;;0.00;99.90;;;;;;5131963;27;20433;-82
2022/01/11 01:38:55;;;;;;;207.35;24.80;;;0.00;99.90;;;;;;5135223;27;20138;-82
2022/01/11 01:41:22;;;;;;;78.45;17.35;;;0.60;99.90;;;;;;5135626;27;20130;-82
2022/01/11 01:43:55;;;;;;;109.30;19.77;;;-0.10;99.90;;;;;;5133943;27;20495;-82
2022/01/11 01:46:22;;;;;;;143.68;21.85;;;-0.20;99.90;;;;;;5118122;27;20046;-83
2022/01/11 01:48:48;;;;;;;159.30;24.30;;;-0.20;99.90;;;;;;5132087;27;20495;-82
2022/01/11 01:51:14;;;;;;;;;;;-0.20;99.90;;;;;;5135516;27;20499;-82
2022/01/11 01:53:47;;;;;;;114.68;19.40;;;-0.20;99.90;;;;;;5134691;27;19949;-82
2022/01/11 01:56:13;;;;;;;107.07;20.02;;;-0.30;99.90;;;;;;5135354;27;20061;-82
2022/01/11 01:58:39;;;;;;;;;;;-0.30;99.90;;;;;;5116584;27;20511;-82
2022/01/11 02:01:06;;;;;;;77.30;19.00;;;-0.30;99.90;;;;;;5126251;27;19919;-82
2022/01/11 02:03:37;;;;;;;87.40;19.58;;;-0.30;99.90;;;;;;5123249;27;20058;-85
2022/01/11 02:06:05;;;;;;;156.57;22.85;;;-0.30;99.90;;;;;;5135220;27;20046;-82
2022/01/11 02:08:32;;;;;;;101.78;21.73;;;-0.30;99.90;;;;;;5135044;27;20047;-85
2022/01/11 02:10:58;;;;;;;122.00;20.13;;;-0.30;99.90;;;;;;5134198;27;20046;-82
2022/01/11 02:13:23;;;;;;;178.00;24.58;;;0.60;99.90;;;;;;5134973;27;20038;-82
2022/01/11 02:15:51;;;;;;;112.90;22.02;;;-0.30;99.90;;;;;;5133432;27;20433;-82
2022/01/11 02:18:21;;;;;;;132.23;22.20;;;-0.30;99.90;;;;;;5134993;27;20050;-82
2022/01/11 02:20:49;;;;;;;214.55;24.92;;;0.20;99.90;;;;;;5134458;27;20449;-83
2022/01/11 02:23:17;;;;;;;116.53;22.27;;;-0.30;99.90;;;;;;5135193;27;20054;-81
2022/01/11 02:25:43;;;;;;;137.93;22.70;;;-0.30;99.90;;;;;;5117106;27;20042;-82
2022/01/11 02:28:12;;;;;;;162.60;24.63;;;-0.30;99.90;;;;;;5117265;27;20043;-82
2022/01/11 02:30:39;;;;;;;169.93;24.17;;;-0.30;99.90;;;;;;5133588;27;20042;-82
2022/01/11 02:33:10;;;;;;;105.65;21.48;;;-0.30;99.90;;;;;;5134242;27;20057;-82
2022/01/11 02:35:36;;;;;;;205.88;26.75;;;-0.30;99.90;;;;;;5108061;28;20480;-85
2022/01/11 02:38:02;;;;;;;;;;;0.60;99.90;;;;;;5108094;28;20907;-82
2022/01/11 02:40:27;;;;;;;209.77;24.50;;;-0.30;99.90;;;;;;5131116;28;19919;-82
2022/01/11 02:42:53;;;;;;;220.52;25.35;;;-0.30;99.90;;;;;;5130939;28;20083;-82
2022/01/11 02:45:20;;;;;;;127.47;22.13;;;-0.30;99.90;;;;;;5130459;28;20054;-83
2022/01/11 02:47:48;;;;;;;153.35;22.35;;;-0.30;99.90;;;;;;5113459;28;20047;-82
2022/01/11 02:50:15;;;;;;;223.68;26.05;;;-0.30;99.90;;;;;;5107645;28;20123;-82
2022/01/11 02:52:41;;;;;;;260.20;26.23;;;-0.30;99.90;;;;;;5073218;28;20036;-82
2022/01/11 02:55:11;;;;;;;215.75;26.20;;;-0.40;99.90;;;;;;5089979;28;20131;-82
2022/01/11 02:57:37;;;;;;;243.13;27.48;;;-0.40;99.90;;;;;;5090279;28;20058;-86
2022/01/11 03:00:10;;;;;;;237.05;24.33;;;0.50;99.90;;;;;;5089038;28;20084;-82
2022/01/11 03:02:36;;;;;;;176.18;22.75;;;-0.40;99.90;;;;;;5090343;28;20396;-83
2022/01/11 03:05:05;;;;;;;166.20;21.38;;;-0.40;99.90;;;;;;5089955;28;20051;-82
2022/01/11 03:07:31;;;;;;;91.85;18.00;;;-0.40;99.90;;;;;;5073731;28;20544;-82
2022/01/11 03:10:04;;;;;;;188.07;24.35;;;-0.50;99.90;;;;;;5089712;28;20159;-84
2022/01/11 03:12:31;;;;;;;104.90;17.17;;;-0.50;99.90;;;;;;5090380;28;20106;-82
2022/01/11 03:14:57;;;;;;;93.70;18.75;;;-0.60;99.90;;;;;;5079276;28;20072;-82
2022/01/11 03:17:23;;;;;;;;;;;-0.60;99.90;;;;;;5110560;28;20488;-82
2022/01/11 03:19:49;;;;;;;88.32;19.77;;;-0.10;99.90;;;;;;5089207;28;20011;-82
2022/01/11 03:22:15;;;;;;;95.35;18.77;;;-0.70;99.90;;;;;;5090154;28;20134;-82
2022/01/11 03:24:41;;;;;;;103.75;19.75;;;-0.20;99.90;;;;;;5098131;28;20092;-86
2022/01/11 03:27:07;;;;;;;88.38;19.70;;;-0.70;99.90;;;;;;5094386;28;20040;-82
2022/01/11 03:29:34;;;;;;;88.35;20.80;;;-0.70;99.90;;;;;;5088940;28;20083;-82
2022/01/11 03:32:00;;;;;;;114.93;22.00;;;-0.70;99.90;;;;;;5090690;28;20083;-82
2022/01/11 03:34:25;;;;;;;121.13;23.95;;;-0.70;99.90;;;;;;5106845;28;20079;-82
2022/01/11 03:36:51;;;;;;;99.05;22.65;;;0.10;99.90;;;;;;5094444;27;20059;-82
2022/01/11 03:39:17;;;;;;;125.60;22.40;;;0.20;99.90;;;;;;5134015;27;20047;-82
2022/01/11 03:41:43;;;;;;;173.95;25.42;;;-0.80;99.90;;;;;;5133898;27;20043;-86
2022/01/11 03:44:09;;;;;;;160.95;26.23;;;-0.80;99.90;;;;;;5117518;27;20047;-82
2022/01/11 03:46:34;;;;;;;87.50;19.45;;;0.10;99.90;;;;;;5137561;27;20047;-82
2022/01/11 03:49:00;;;;;;;80.07;20.42;;;-0.80;99.90;;;;;;5120284;27;20386;-82
2022/01/11 03:51:26;;;;;;;87.43;22.60;;;-0.80;99.90;;;;;;5137841;27;20121;-82
2022/01/11 03:54:03;;;;;;;101.70;23.40;;;-0.70;99.90;;;;;;5136814;27;20043;-82
2022/01/11 03:56:29;;;;;;;108.38;24.40;;;-0.20;99.90;;;;;;5120742;27;20090;-82
2022/01/11 03:58:54;;;;;;;147.18;27.52;;;-0.80;99.90;;;;;;5135928;27;20081;-83
2022/01/11 04:01:21;;;;;;;133.32;24.95;;;-0.80;99.90;;;;;;5137442;27;20039;-83
2022/01/11 04:03:48;;;;;;;143.98;25.38;;;-0.80;99.90;;;;;;5134058;27;20085;-85
2022/01/11 04:06:16;;;;;;;121.00;24.52;;;-0.80;99.90;;;;;;5127750;27;20043;-82
2022/01/11 04:08:43;;;;;;;112.32;25.73;;;-0.60;99.90;;;;;;5131303;27;20395;-82
2022/01/11 04:11:10;;;;;;;120.13;26.90;;;-0.80;99.90;;;;;;5136980;27;20531;-82
2022/01/11 04:13:35;;;;;;;;;;;-0.70;99.90;;;;;;5119894;27;20529;-82
2022/01/11 04:16:01;;;;;;;175.45;26.08;;;-0.70;99.90;;;;;;5136569;27;19927;-82
2022/01/11 04:18:26;;;;;;;134.35;26.60;;;-0.70;99.90;;;;;;5155281;27;20191;-82
2022/01/11 04:20:52;;;;;;;165.75;31.13;;;-0.70;99.90;;;;;;5136702;27;20588;-82
2022/01/11 04:23:18;;;;;;;127.07;25.80;;;-0.70;99.90;;;;;;5120436;27;20535;-82
2022/01/11 04:25:44;;;;;;;127.95;26.27;;;-0.70;99.90;;;;;;5134702;27;20070;-81
2022/01/11 04:28:10;;;;;;;166.63;26.23;;;-0.70;99.90;;;;;;5136598;27;20127;-82
2022/01/11 04:30:37;;;;;;;136.10;29.05;;;-0.70;99.90;;;;;;5118807;27;20038;-82
2022/01/11 04:33:04;;;;;;;138.80;27.27;;;-0.70;99.90;;;;;;5154386;27;20548;-82
2022/01/11 04:35:31;;;;;;;117.18;24.50;;;0.20;99.90;;;;;;5119687;27;20035;-82
2022/01/11 04:37:57;;;;;;;86.43;24.60;;;-0.50;99.90;;;;;;5136092;27;20133;-81
2022/01/11 04:40:22;;;;;;;165.60;29.27;;;-0.70;99.90;;;;;;5136448;27;20130;-81
2022/01/11 04:42:49;;;;;;;172.82;28.98;;;-0.70;99.90;;;;;;5119793;27;20122;-82
2022/01/11 04:45:15;;;;;;;194.82;29.95;;;-0.70;99.90;;;;;;5118078;27;20099;-82
2022/01/11 04:47:41;;;;;;;165.93;28.23;;;-0.60;99.90;;;;;;5136389;27;20062;-82
2022/01/11 04:50:08;;;;;;;;;;;-0.70;99.90;;;;;;5136677;27;20050;-83
2022/01/11 04:52:34;;;;;;;114.50;27.55;;;-0.60;99.90;;;;;;5134255;27;20368;-82
2022/01/11 04:55:00;;;;;;;123.70;26.55;;;-0.70;99.90;;;;;;5135222;27;20099;-82
2022/01/11 04:57:26;;;;;;;108.20;27.98;;;-0.70;99.90;;;;;;5119163;27;20046;-82
2022/01/11 04:59:51;;;;;;;117.30;27.90;;;0.00;99.90;;;;;;5134853;27;20047;-86
2022/01/11 05:02:17;;;;;;;118.68;30.98;;;-0.60;99.90;;;;;;5102275;27;20039;-82
2022/01/11 05:04:43;;;;;;;113.53;29.00;;;-0.60;99.90;;;;;;5118981;27;20054;-82
2022/01/11 05:07:09;;;;;;;;;;;0.30;99.90;;;;;;5119612;27;20127;-82
2022/01/11 05:09:34;;;;;;;129.73;27.00;;;-0.60;99.90;;;;;;5136002;27;19927;-82
2022/01/11 05:12:00;;;;;;;113.70;25.60;;;-0.60;99.90;;;;;;5118690;27;20061;-82
2022/01/11 05:14:26;;;;;;;144.80;30.58;;;-0.60;99.90;;;;;;5135224;27;20099;-82
2022/01/11 05:16:52;;;;;;;122.13;29.67;;;-0.60;99.90;;;;;;5102213;27;20054;-82
2022/01/11 05:19:17;;;;;;;121.70;30.55;;;-0.60;99.90;;;;;;5135354;27;20078;-82
2022/01/11 05:21:43;;;;;;;117.47;31.05;;;-0.50;99.90;;;;;;5136337;27;20038;-82
2022/01/11 05:24:09;;;;;;;;;;;0.10;99.90;;;;;;5118986;27;20074;-83
2022/01/11 05:26:35;;;;;;;120.88;30.35;;;0.10;99.90;;;;;;5136188;27;19926;-82
2022/01/11 05:29:02;;;;;;;120.82;29.83;;;-0.60;99.90;;;;;;5134560;27;20047;-82
2022/01/11 05:31:28;;;;;;;120.00;28.35;;;-0.60;99.90;;;;;;5135945;27;20042;-82
2022/01/11 05:33:53;;;;;;;114.22;28.63;;;0.00;99.90;;;;;;5136143;27;20172;-83
2022/01/11 05:36:19;;;;;;;116.13;28.60;;;0.10;99.90;;;;;;5118416;27;20384;-83
2022/01/11 05:38:45;;;;;;;105.63;27.80;;;-0.70;99.90;;;;;;5099811;28;20063;-82
2022/01/11 05:41:11;;;;;;;120.97;30.05;;;-0.60;99.90;;;;;;5111198;28;20061;-81
2022/01/11 05:43:36;;;;;;;146.50;32.63;;;-0.70;99.90;;;;;;5111187;28;20058;-82
2022/01/11 05:46:03;;;;;;;173.43;34.72;;;-0.70;99.90;;;;;;5111360;28;20044;-82
2022/01/11 05:48:32;;;;;;;137.63;32.38;;;-0.70;99.90;;;;;;5094875;28;20152;-82
2022/01/11 05:51:01;;;;;;;144.45;33.17;;;-0.70;99.90;;;;;;5111610;28;20055;-86
2022/01/11 05:53:27;;;;;;;132.07;33.20;;;-0.60;99.90;;;;;;5111667;28;20048;-82
2022/01/11 05:55:52;;;;;;;158.50;35.35;;;-0.60;99.90;;;;;;5111182;28;20098;-82
2022/01/11 05:58:18;;;;;;;160.95;35.15;;;-0.60;99.90;;;;;;5077401;28;20049;-82
2022/01/11 06:00:44;;;;;;;151.65;33.70;;;-0.60;99.90;;;;;;5110574;28;20051;-82
2022/01/11 06:03:10;;;;;;;153.52;34.75;;;-0.60;99.90;;;;;;5110940;28;20039;-82
2022/01/11 06:05:38;;;;;;;192.50;37.72;;;-0.60;99.90;;;;;;5111285;28;20055;-83
2022/01/11 06:08:08;;;;;;;188.95;38.42;;;-0.60;99.90;;;;;;5110882;28;20047;-83
2022/01/11 06:10:34;;;;;;;174.70;35.85;;;-0.50;99.90;;;;;;5111423;28;20051;-81
2022/01/11 06:13:00;;;;;;;200.00;39.08;;;-0.60;99.90;;;;;;5111622;28;20074;-86
2022/01/11 06:15:29;;;;;;;178.85;37.95;;;-0.60;99.90;;;;;;5093448;28;20063;-82
2022/01/11 06:17:54;;;;;;;179.60;35.05;;;-0.60;99.90;;;;;;5111242;28;20051;-82
2022/01/11 06:20:20;;;;;;;170.48;35.22;;;0.20;99.90;;;;;;5087008;28;20054;-82
2022/01/11 06:22:46;;;;;;;144.48;34.42;;;-0.60;99.90;;;;;;5091104;28;20047;-81
2022/01/11 06:25:12;;;;;;;166.38;34.58;;;-0.60;99.90;;;;;;5073725;28;20048;-82
2022/01/11 06:27:40;;;;;;;175.07;36.75;;;-0.60;99.90;;;;;;5090047;28;20150;-82
2022/01/11 06:30:08;;;;;;;146.52;34.13;;;-0.60;99.90;;;;;;5097906;28;20040;-82
2022/01/11 06:32:33;;;;;;;128.65;33.22;;;-0.60;99.90;;;;;;5094128;28;20499;-82
2022/01/11 06:34:59;;;;;;;144.43;33.58;;;-0.60;99.90;;;;;;5074051;28;20540;-84
2022/01/11 06:37:25;;;;;;;113.88;31.63;;;-0.60;99.90;;;;;;5096524;28;20162;-81
2022/01/11 06:39:51;;;;;;;132.15;32.83;;;0.20;99.90;;;;;;5086534;27;20051;-82
2022/01/11 06:42:17;;;;;;;131.07;32.17;;;-0.60;99.90;;;;;;5117673;27;20087;-80
2022/01/11 06:44:43;;;;;;;127.50;33.38;;;-0.60;99.90;;;;;;5134267;27;20046;-81
2022/01/11 06:47:09;;;;;;;134.38;32.10;;;-0.50;99.90;;;;;;5117255;27;20050;-82
2022/01/11 06:49:35;;;;;;;111.82;31.23;;;-0.70;99.90;;;;;;5117745;27;20387;-81
2022/01/11 06:52:00;;;;;;;117.10;31.77;;;-0.70;99.90;;;;;;5119045;28;20046;-80
2022/01/11 06:54:26;;;;;;;100.07;30.80;;;-0.70;99.90;;;;;;5113160;28;20043;-81
2022/01/11 06:56:52;;;;;;;110.63;29.40;;;-0.70;99.90;;;;;;5097624;28;20122;-80
2022/01/11 06:59:17;;;;;;;94.28;29.80;;;-0.70;99.90;;;;;;5115966;27;20480;-81
2022/01/11 07:01:43;;;;;;;84.95;29.58;;;-0.70;99.90;;;;;;5134823;27;20095;-80
2022/01/11 07:04:09;;;;;;;94.65;31.17;;;-0.70;99.90;;;;;;5134498;27;20046;-85
2022/01/11 07:06:35;;;;;;;95.22;30.58;;;-0.70;99.90;;;;;;5153278;27;20099;-80
2022/01/11 07:09:00;;;;;;;98.88;30.20;;;-0.80;99.90;;;;;;5134627;27;20142;-80
2022/01/11 07:11:26;;;;;;;93.13;29.27;;;-0.70;99.90;;;;;;5126079;28;20051;-80
2022/01/11 07:13:52;;;;;;;88.63;28.38;;;-0.80;99.90;;;;;;5119090;27;20068;-80
2022/01/11 07:16:17;;;;;;;94.78;30.05;;;-0.80;99.90;;;;;;5117370;27;20134;-81
2022/01/11 07:18:44;;;;;;;79.50;30.10;;;-0.80;99.90;;;;;;5118463;27;20038;-80
2022/01/11 07:21:10;;;;;;;76.78;29.13;;;-0.90;99.90;;;;;;5138627;27;20042;-84
2022/01/11 07:23:36;;;;;;;;;;;-0.90;99.90;;;;;;5157409;27;20062;-80
2022/01/11 07:26:02;;;;;;;69.47;26.48;;;-0.90;99.90;;;;;;5104329;27;20379;-80
2022/01/11 07:28:30;;;;;;;;;;;-0.90;99.90;;;;;;5121183;27;20054;-82
2022/01/11 07:30:55;;;;;;;75.32;25.70;;;-1.00;99.90;;;;;;5138686;27;19925;-82
2022/01/11 07:33:21;;;;;;;65.40;27.75;;;-1.00;99.90;;;;;;5137605;27;20126;-80
2022/01/11 07:35:47;;;;;;;75.05;27.70;;;-0.90;99.90;;;;;;5134393;27;20122;-81
2022/01/11 07:38:13;;;;;;;78.90;26.90;;;-0.40;99.90;;;;;;5117368;27;20065;-84
2022/01/11 07:40:38;;;;;;;84.53;29.33;;;-0.90;99.90;;;;;;5129340;27;20055;-80
2022/01/11 07:43:04;;;;;;;68.18;27.00;;;-0.90;99.90;;;;;;5100687;27;20537;-80
2022/01/11 07:45:30;;;;;;;64.03;26.55;;;-0.90;99.90;;;;;;5103262;27;20091;-80
2022/01/11 07:47:56;;;;;;;73.78;27.15;;;-0.90;99.90;;;;;;5100744;27;20047;-80
2022/01/11 07:50:21;;;;;;;72.13;26.00;;;-0.90;99.90;;;;;;5100412;27;20055;-80
2022/01/11 07:52:48;;;;;;;59.40;25.40;;;-0.90;99.90;;;;;;5135236;27;20078;-79
2022/01/11 07:55:14;;;;;;;73.97;25.92;;;-0.80;99.90;;;;;;5100848;27;20039;-83
2022/01/11 07:57:40;;;;;;;71.45;26.65;;;-0.70;99.90;;;;;;5117837;27;20046;-80
2022/01/11 08:00:07;;;;;;;68.47;25.63;;;-0.80;99.90;;;;;;5084389;27;20367;-81
2022/01/11 08:02:33;;;;;;;55.88;24.98;;;-0.80;99.90;;;;;;5133704;27;20053;-77
2022/01/11 08:04:59;;;;;;;65.35;24.08;;;-0.80;99.90;;;;;;5120848;27;20051;-80
2022/01/11 08:07:25;;;;;;;62.30;24.98;;;-0.70;99.90;;;;;;5137186;27;20034;-79
2022/01/11 08:09:50;;;;;;;51.70;20.88;;;-0.70;99.90;;;;;;5137503;27;20085;-80
2022/01/11 08:12:16;;;;;;;60.03;20.67;;;-0.60;99.90;;;;;;5137142;27;20042;-85
2022/01/11 08:14:42;;;;;;;49.90;22.17;;;-0.60;99.90;;;;;;5135926;27;20050;-79
2022/01/11 08:17:08;;;;;;;49.78;19.85;;;-0.50;99.90;;;;;;5137428;27;20043;-80
2022/01/11 08:19:33;;;;;;;44.25;19.75;;;-0.50;99.90;;;;;;5116146;27;20120;-80
2022/01/11 08:21:59;;;;;;;43.47;20.35;;;-0.50;99.90;;;;;;5127757;27;20046;-79
2022/01/11 08:24:25;;;;;;;56.63;19.27;;;0.30;99.90;;;;;;5137036;27;20103;-80
2022/01/11 08:26:53;;;;;;;46.88;19.67;;;-0.40;99.90;;;;;;5137616;27;20043;-80
2022/01/11 08:29:20;;;;;;;45.00;19.98;;;-0.40;99.90;;;;;;5136157;27;20046;-84
2022/01/11 08:31:46;;;;;;;48.20;20.73;;;-0.30;99.90;;;;;;5119431;27;20506;-80
2022/01/11 08:34:14;;;;;;;41.25;18.92;;;-0.30;99.90;;;;;;5137366;27;20045;-79
2022/01/11 08:36:41;;;;;;;42.05;19.85;;;0.20;99.90;;;;;;5099876;27;20075;-81
2022/01/11 08:39:08;;;;;;;46.50;19.27;;;-0.20;99.90;;;;;;5104604;27;20054;-79
2022/01/11 08:41:33;;;;;;;;;;;-0.10;99.90;;;;;;5135973;27;20054;-80
2022/01/11 08:43:59;;;;;;;41.95;18.38;;;-0.20;99.90;;;;;;5135949;27;19930;-80
2022/01/11 08:46:25;;;;;;;47.70;19.60;;;0.70;99.90;;;;;;5136661;27;20129;-82
2022/01/11 08:48:51;;;;;;;47.65;19.75;;;-0.10;99.90;;;;;;5137334;27;20046;-79
2022/01/11 08:51:17;;;;;;;43.88;18.95;;;-0.10;99.90;;;;;;5137218;27;20057;-80
2022/01/11 08:53:43;;;;;;;46.85;18.77;;;0.00;99.90;;;;;;5136716;27;20031;-79
2022/01/11 08:56:08;;;;;;;40.13;20.00;;;0.00;99.90;;;;;;5117583;27;20129;-79
2022/01/11 08:58:34;;;;;;;43.00;18.00;;;0.20;99.90;;;;;;5115643;27;20446;-81
2022/01/11 09:01:00;;;;;;;40.83;18.38;;;0.00;99.90;;;;;;5116815;27;20566;-80
2022/01/11 09:03:25;;;;;;;44.35;18.95;;;0.10;99.90;;;;;;5134947;27;20121;-84
2022/01/11 09:05:52;;;;;;;43.28;17.70;;;0.10;99.90;;;;;;5098332;27;20047;-81
2022/01/11 09:08:18;;;;;;;43.78;19.27;;;0.30;99.90;;;;;;5131802;27;20074;-80
2022/01/11 09:10:44;;;;;;;;;;;0.20;99.90;;;;;;5127361;27;20047;-80
2022/01/11 09:13:09;;;;;;;42.65;18.70;;;0.20;99.90;;;;;;5126466;27;19942;-80
2022/01/11 09:15:35;;;;;;;37.78;17.70;;;0.30;99.90;;;;;;5107133;27;20043;-80
2022/01/11 09:18:02;;;;;;;43.15;18.88;;;0.30;99.90;;;;;;5115599;27;20358;-80
2022/01/11 09:20:27;;;;;;;41.15;18.20;;;0.30;99.90;;;;;;5098013;27;20046;-81
2022/01/11 09:22:54;;;;;;;39.45;17.20;;;0.40;99.90;;;;;;5129091;27;20038;-79
2022/01/11 09:25:20;;;;;;;42.15;18.58;;;0.40;99.90;;;;;;5130179;27;20053;-79
2022/01/11 09:27:46;;;;;;;41.03;18.98;;;0.50;99.90;;;;;;5129457;27;20055;-80
2022/01/11 09:30:13;;;;;;;36.78;16.20;;;0.50;99.90;;;;;;5132926;27;20507;-80
2022/01/11 09:32:41;;;;;;;33.88;15.05;;;0.50;99.90;;;;;;5125649;27;20047;-80
2022/01/11 09:35:09;;;;;;;38.63;15.57;;;0.50;99.90;;;;;;5132627;27;20047;-79
2022/01/11 09:37:35;;;;;;;35.88;15.30;;;0.60;99.90;;;;;;5115858;27;20053;-79
2022/01/11 09:40:04;;;;;;;36.05;15.43;;;0.60;99.90;;;;;;5130177;27;20067;-76
2022/01/11 09:42:30;;;;;;;33.88;15.68;;;0.70;99.90;;;;;;5132434;27;20057;-80
2022/01/11 09:44:58;;;;;;;35.20;15.55;;;0.70;99.90;;;;;;5114372;27;20491;-76
2022/01/11 09:47:24;;;;;;;34.78;14.30;;;1.00;99.90;;;;;;5126722;27;20061;-80
2022/01/11 09:49:50;;;;;;;30.08;13.82;;;0.80;99.90;;;;;;5134980;27;20042;-78
2022/01/11 09:52:15;;;;;;;34.47;14.35;;;0.80;99.90;;;;;;5135647;27;20122;-79
2022/01/11 09:54:48;;;;;;;35.95;16.45;;;0.80;99.90;;;;;;5117093;27;20344;-83
2022/01/11 09:57:13;;;;;;;30.48;13.57;;;0.80;99.90;;;;;;5118399;27;20050;-81
2022/01/11 09:59:40;;;;;;;32.38;13.93;;;1.10;99.90;;;;;;5081728;27;20053;-80
2022/01/11 10:02:06;;;;;;;36.53;14.90;;;0.90;99.90;;;;;;5093322;27;20121;-81
2022/01/11 10:04:34;;;;;;;34.88;14.35;;;0.90;99.90;;;;;;5132575;27;20097;-82
2022/01/11 10:07:06;;;;;;;33.53;13.65;;;1.60;99.90;;;;;;5117634;27;20103;-80
2022/01/11 10:09:41;;;;;;;32.75;14.07;;;1.00;99.90;;;;;;5127269;27;20058;-82
2022/01/11 10:12:10;;;;;;;34.13;14.02;;;1.00;99.90;;;;;;5110087;27;20397;-80
2022/01/11 10:14:38;;;;;;;32.20;14.65;;;1.00;99.90;;;;;;5124672;27;20070;-77
2022/01/11 10:17:19;;;;;;;33.60;13.07;;;1.10;99.90;;;;;;5096135;27;20575;-78
2022/01/11 10:19:51;;;;;;;27.52;13.63;;;1.10;99.90;;;;;;5116134;27;20086;-75
2022/01/11 10:22:22;;;;;;;38.58;14.25;;;1.10;99.90;;;;;;5127077;27;20445;-73
2022/01/11 10:33:46;;;;;;;30.75;13.70;;;1.10;99.90;;;;;;5870436;23;20033;31
2022/01/11 10:36:13;;;;;;;30.10;13.40;;;1.20;99.90;;;;;;4828906;29;20057;-73
2022/01/11 10:38:39;;;;;;;32.15;13.63;;;1.10;99.90;;;;;;4824665;29;20064;-74
2022/01/11 10:41:05;;;;;;;30.33;13.00;;;1.20;99.90;;;;;;4823181;29;20047;-75
2022/01/11 10:43:42;;;;;;;33.70;13.23;;;1.20;99.90;;;;;;4834391;29;20136;-83
2022/01/11 10:46:08;;;;;;;32.28;13.65;;;1.40;99.90;;;;;;4831936;29;20136;-79
2022/01/11 10:48:38;;;;;;;34.72;14.02;;;1.20;99.90;;;;;;4809210;29;20060;-76
2022/01/11 10:51:04;;;;;;;31.33;13.07;;;1.30;99.90;;;;;;4826015;29;20495;-75
2022/01/11 10:53:38;;;;;;;32.55;13.50;;;1.40;99.90;;;;;;4834275;29;20046;-76
2022/01/11 10:56:05;;;;;;;37.45;14.35;;;1.20;99.90;;;;;;4834983;29;20042;-83
2022/01/11 10:58:36;;;;;;;33.63;14.73;;;1.30;99.90;;;;;;4813489;29;20050;-79
2022/01/11 11:01:04;;;;;;;32.40;13.68;;;1.30;99.90;;;;;;4815920;29;20062;-79
2022/01/11 11:03:32;;;;;;;30.98;13.75;;;1.30;99.90;;;;;;4839643;29;20050;-77
2022/01/11 11:06:07;;;;;;;32.92;13.23;;;1.50;99.90;;;;;;4838360;29;20058;-89
2022/01/11 11:08:36;;;;;;;35.22;14.18;;;1.30;99.90;;;;;;4826423;29;20051;-83
2022/01/11 11:11:10;;;;;;;34.72;13.38;;;2.10;99.90;;;;;;4825402;29;20408;-83
2022/01/11 11:13:38;;;;;;;29.83;12.02;;;1.40;99.90;;;;;;4810212;29;20377;-82
2022/01/11 11:16:21;;;;;;;36.22;14.13;;;2.20;99.90;;;;;;4825055;29;20137;-80
2022/01/11 11:18:57;;;;;;;29.92;11.85;;;1.60;99.90;;;;;;4822882;29;20131;-76
2022/01/11 11:21:38;;;;;;;32.08;12.55;;;1.80;99.90;;;;;;4823002;29;20118;-74
2022/01/11 11:24:16;;;;;;;33.38;12.10;;;2.10;99.90;;;;;;4826322;29;20054;-81
2022/01/11 11:26:46;;;;;;;26.27;11.38;;;2.00;99.90;;;;;;4837414;29;20054;-86
2022/01/11 11:29:13;;;;;;;27.33;11.00;;;2.10;99.90;;;;;;4827936;29;20046;-87
2022/01/11 11:31:39;;;;;;;26.42;11.35;;;2.00;99.90;;;;;;4832046;29;20408;-82
2022/01/11 11:34:08;;;;;;;31.77;12.25;;;2.50;99.90;;;;;;4803507;29;20061;-82
2022/01/11 11:36:35;;;;;;;28.95;10.95;;;2.10;99.90;;;;;;4830416;29;20065;-83
2022/01/11 11:39:17;;;;;;;28.25;11.25;;;2.30;99.90;;;;;;4825172;29;20090;-88
2022/01/11 11:41:50;;;;;;;29.52;11.95;;;2.60;99.90;;;;;;4825470;29;20093;-85
2022/01/11 11:44:24;;;;;;;25.52;11.68;;;2.90;99.90;;;;;;4835382;29;20065;-81
2022/01/11 11:46:56;;;;;;;28.25;11.65;;;3.90;99.90;;;;;;4839269;29;20058;-82
2022/01/11 11:49:44;;;;;;;25.90;10.93;;;3.60;99.90;;;;;;4835516;29;20604;-81
2022/01/11 11:52:20;;;;;;;24.27;10.75;;;3.70;99.90;;;;;;4840284;29;20058;-83
2022/01/11 11:55:16;;;;;;;23.13;10.23;;;3.60;99.90;;;;;;4820145;29;20563;-80
2022/01/11 11:57:42;;;;;;;29.50;10.35;;;3.50;99.90;;;;;;4841176;29;21288;-80
2022/01/11 12:00:11;;;;;;;25.23;10.25;;;3.90;99.90;;;;;;4826820;29;20046;-81
2022/01/11 12:02:39;;;;;;;24.08;10.65;;;4.30;99.90;;;;;;4842624;29;20129;-80
2022/01/11 12:05:09;;;;;;;27.27;11.50;;;4.50;99.90;;;;;;4842138;29;20054;-87
2022/01/11 12:07:45;;;;;;;27.02;12.07;;;4.60;99.90;;;;;;4843151;29;20201;-80
2022/01/11 12:10:26;;;;;;;27.25;11.80;;;4.80;99.90;;;;;;4825430;29;20551;-80
2022/01/11 12:12:54;;;;;;;25.85;10.13;;;5.10;99.90;;;;;;4840380;29;20399;-82
2022/01/11 12:15:33;;;;;;;24.48;10.95;;;5.30;99.90;;;;;;4842375;29;20077;-81
2022/01/11 12:17:58;;;;;;;27.25;11.60;;;5.50;99.90;;;;;;4827847;29;20053;-83
2022/01/11 12:20:39;;;;;;;24.42;10.70;;;5.80;99.90;;;;;;4842522;29;20054;-80
2022/01/11 12:23:10;;;;;;;25.83;11.43;;;5.70;99.90;;;;;;4827409;29;20065;-80
2022/01/11 12:25:43;;;;;;;22.50;10.63;;;5.60;99.90;;;;;;4842699;29;20133;-80
2022/01/11 12:28:20;;;;;;;23.45;10.38;;;5.40;99.90;;;;;;4838736;29;20740;-85
2022/01/11 12:30:46;;;;;;;24.80;10.85;;;5.30;99.90;;;;;;4842632;29;20054;-80
2022/01/11 12:33:23;;;;;;;24.75;11.10;;;5.60;99.90;;;;;;4842362;29;20518;-80
2022/01/11 12:36:01;;;;;;;30.33;12.70;;;5.30;99.90;;;;;;4827237;29;20089;-80
2022/01/11 12:38:33;;;;;;;23.95;12.00;;;5.60;99.90;;;;;;4842021;29;20113;-80
2022/01/11 12:41:18;;;;;;;25.63;11.38;;;6.20;99.90;;;;;;4842651;29;20053;-80
2022/01/11 12:43:48;;;;;;;25.30;11.82;;;6.20;99.90;;;;;;4842830;29;20050;-79